sensor_id;sensor_type;location;lat;lon;timestamp;temperature;humidity
8463;DHT22;4268;52.506;13.462;2023-08-24T00:00:20;19.90;97.00
8463;DHT22;4268;52.506;13.462;2023-08-24T00:02:46;19.90;97.30
8463;DHT22;4268;52.506;13.462;2023-08-24T00:05:12;19.80;97.60
8463;DHT22;4268;52.506;13.462;2023-08-24T00:07:38;19.90;97.70
8463;DHT22;4268;52.506;13.462;2023-08-24T00:10:04;19.80;97.90
8463;DHT22;4268;52.506;13.462;2023-08-24T00:12:30;19.80;98.00
8463;DHT22;4268;52.506;13.462;2023-08-24T00:14:55;19.80;98.20
8463;DHT22;4268;52.506;13.462;2023-08-24T00:17:21;19.80;98.30
8463;DHT22;4268;52.506;13.462;2023-08-24T00:19:48;19.80;98.10
8463;DHT22;4268;52.506;13.462;2023-08-24T00:22:13;19.70;98.30
8463;DHT22;4268;52.506;13.462;2023-08-24T00:24:39;19.80;98.90
8463;DHT22;4268;52.506;13.462;2023-08-24T00:27:04;19.70;99.10
8463;DHT22;4268;52.506;13.462;2023-08-24T00:29:30;19.70;99.10
8463;DHT22;4268;52.506;13.462;2023-08-24T00:31:55;19.70;99.30
8463;DHT22;4268;52.506;13.462;2023-08-24T00:34:21;19.60;99.50
8463;DHT22;4268;52.506;13.462;2023-08-24T00:36:46;19.60;99.90
8463;DHT22;4268;52.506;13.462;2023-08-24T00:39:12;19.70;99.90
8463;DHT22;4268;52.506;13.462;2023-08-24T00:41:37;19.60;99.90
8463;DHT22;4268;52.506;13.462;2023-08-24T00:44:03;19.60;99.90
8463;DHT22;4268;52.506;13.462;2023-08-24T00:46:28;19.90;99.90
8463;DHT22;4268;52.506;13.462;2023-08-24T00:48:54;19.50;99.90
8463;DHT22;4268;52.506;13.462;2023-08-24T00:51:24;19.50;99.90
8463;DHT22;4268;52.506;13.462;2023-08-24T00:53:50;19.50;99.90
8463;DHT22;4268;52.506;13.462;2023-08-24T00:56:16;19.50;99.90
8463;DHT22;4268;52.506;13.462;2023-08-24T00:58:42;19.50;99.90
8463;DHT22;4268;52.506;13.462;2023-08-24T01:01:09;19.50;99.90
8463;DHT22;4268;52.506;13.462;2023-08-24T01:03:35;19.50;99.90
8463;DHT22;4268;52.506;13.462;2023-08-24T01:06:01;19.40;99.90
8463;DHT22;4268;52.506;13.462;2023-08-24T01:08:26;19.50;99.90
8463;DHT22;4268;52.506;13.462;2023-08-24T01:10:57;19.40;99.90
8463;DHT22;4268;52.506;13.462;2023-08-24T01:13:35;19.50;99.90
8463;DHT22;4268;52.506;13.462;2023-08-24T01:16:09;19.40;99.90
8463;DHT22;4268;52.506;13.462;2023-08-24T01:18:39;19.50;99.90
8463;DHT22;4268;52.506;13.462;2023-08-24T01:21:05;19.50;99.90
8463;DHT22;4268;52.506;13.462;2023-08-24T01:26:09;19.50;99.90
8463;DHT22;4268;52.506;13.462;2023-08-24T01:28:36;19.50;99.90
8463;DHT22;4268;52.506;13.462;2023-08-24T01:31:04;19.60;99.90
8463;DHT22;4268;52.506;13.462;2023-08-24T01:33:29;19.50;99.90
8463;DHT22;4268;52.506;13.462;2023-08-24T01:35:55;19.60;99.90
8463;DHT22;4268;52.506;13.462;2023-08-24T01:38:20;19.50;99.90
8463;DHT22;4268;52.506;13.462;2023-08-24T01:40:59;19.50;99.90
8463;DHT22;4268;52.506;13.462;2023-08-24T01:43:31;19.50;99.90
8463;DHT22;4268;52.506;13.462;2023-08-24T01:45:59;19.40;99.90
8463;DHT22;4268;52.506;13.462;2023-08-24T01:48:28;19.40;99.90
8463;DHT22;4268;52.506;13.462;2023-08-24T01:50:55;19.40;99.90
8463;DHT22;4268;52.506;13.462;2023-08-24T01:53:21;19.40;99.90
8463;DHT22;4268;52.506;13.462;2023-08-24T01:55:47;19.30;99.90
8463;DHT22;4268;52.506;13.462;2023-08-24T01:58:12;19.30;99.90
8463;DHT22;4268;52.506;13.462;2023-08-24T02:00:37;19.20;99.90
8463;DHT22;4268;52.506;13.462;2023-08-24T02:03:03;19.30;99.90
8463;DHT22;4268;52.506;13.462;2023-08-24T02:05:29;19.30;99.90
8463;DHT22;4268;52.506;13.462;2023-08-24T02:07:54;19.20;99.90
8463;DHT22;4268;52.506;13.462;2023-08-24T02:10:20;19.20;99.90
8463;DHT22;4268;52.506;13.462;2023-08-24T02:12:45;19.20;99.90
8463;DHT22;4268;52.506;13.462;2023-08-24T02:15:11;19.20;99.90
8463;DHT22;4268;52.506;13.462;2023-08-24T02:17:36;19.10;99.90
8463;DHT22;4268;52.506;13.462;2023-08-24T02:20:02;19.10;99.90
8463;DHT22;4268;52.506;13.462;2023-08-24T02:22:29;19.10;99.90
8463;DHT22;4268;52.506;13.462;2023-08-24T02:24:55;19.10;99.90
8463;DHT22;4268;52.506;13.462;2023-08-24T02:27:21;19.10;99.90
8463;DHT22;4268;52.506;13.462;2023-08-24T02:29:46;19.30;99.90
8463;DHT22;4268;52.506;13.462;2023-08-24T02:32:12;19.20;99.90
8463;DHT22;4268;52.506;13.462;2023-08-24T02:34:37;19.20;99.90
8463;DHT22;4268;52.506;13.462;2023-08-24T02:37:04;19.20;99.90
8463;DHT22;4268;52.506;13.462;2023-08-24T02:39:29;19.30;99.90
8463;DHT22;4268;52.506;13.462;2023-08-24T02:41:55;19.20;99.90
8463;DHT22;4268;52.506;13.462;2023-08-24T02:44:20;19.30;99.90
8463;DHT22;4268;52.506;13.462;2023-08-24T02:46:48;19.20;99.90
8463;DHT22;4268;52.506;13.462;2023-08-24T02:49:13;19.20;99.90
8463;DHT22;4268;52.506;13.462;2023-08-24T02:51:39;19.30;99.90
8463;DHT22;4268;52.506;13.462;2023-08-24T02:54:05;19.30;99.90
8463;DHT22;4268;52.506;13.462;2023-08-24T02:56:30;19.30;99.90
8463;DHT22;4268;52.506;13.462;2023-08-24T02:58:56;19.30;99.90
8463;DHT22;4268;52.506;13.462;2023-08-24T03:01:21;19.30;99.90
8463;DHT22;4268;52.506;13.462;2023-08-24T03:03:47;19.30;99.90
8463;DHT22;4268;52.506;13.462;2023-08-24T03:06:12;19.30;99.90
8463;DHT22;4268;52.506;13.462;2023-08-24T03:08:38;19.30;99.90
8463;DHT22;4268;52.506;13.462;2023-08-24T03:11:03;19.30;99.90
8463;DHT22;4268;52.506;13.462;2023-08-24T03:13:30;19.30;99.90
8463;DHT22;4268;52.506;13.462;2023-08-24T03:15:56;19.30;99.90
8463;DHT22;4268;52.506;13.462;2023-08-24T03:18:21;19.30;99.90
8463;DHT22;4268;52.506;13.462;2023-08-24T03:20:48;19.30;99.90
8463;DHT22;4268;52.506;13.462;2023-08-24T03:23:14;19.30;99.90
8463;DHT22;4268;52.506;13.462;2023-08-24T03:25:41;19.30;99.90
8463;DHT22;4268;52.506;13.462;2023-08-24T03:28:08;19.30;99.90
8463;DHT22;4268;52.506;13.462;2023-08-24T03:30:35;19.30;99.90
8463;DHT22;4268;52.506;13.462;2023-08-24T03:33:01;19.30;99.90
8463;DHT22;4268;52.506;13.462;2023-08-24T03:35:29;19.30;99.90
8463;DHT22;4268;52.506;13.462;2023-08-24T03:37:55;19.30;99.90
8463;DHT22;4268;52.506;13.462;2023-08-24T03:40:20;19.40;99.90
8463;DHT22;4268;52.506;13.462;2023-08-24T03:42:46;19.30;99.90
8463;DHT22;4268;52.506;13.462;2023-08-24T03:45:11;19.40;99.90
8463;DHT22;4268;52.506;13.462;2023-08-24T03:47:37;19.40;99.90
8463;DHT22;4268;52.506;13.462;2023-08-24T03:50:02;19.40;99.90
8463;DHT22;4268;52.506;13.462;2023-08-24T03:52:28;19.40;99.90
8463;DHT22;4268;52.506;13.462;2023-08-24T03:54:53;19.40;99.90
8463;DHT22;4268;52.506;13.462;2023-08-24T03:57:19;19.40;99.90
8463;DHT22;4268;52.506;13.462;2023-08-24T03:59:44;19.50;99.90
8463;DHT22;4268;52.506;13.462;2023-08-24T04:02:10;19.50;99.90
8463;DHT22;4268;52.506;13.462;2023-08-24T04:04:35;19.50;99.90
8463;DHT22;4268;52.506;13.462;2023-08-24T04:07:01;19.50;99.90
8463;DHT22;4268;52.506;13.462;2023-08-24T04:09:27;19.50;99.90
8463;DHT22;4268;52.506;13.462;2023-08-24T04:11:53;19.50;99.90
8463;DHT22;4268;52.506;13.462;2023-08-24T04:14:18;19.50;99.90
8463;DHT22;4268;52.506;13.462;2023-08-24T04:16:44;19.50;99.90
8463;DHT22;4268;52.506;13.462;2023-08-24T04:19:09;19.50;99.90
8463;DHT22;4268;52.506;13.462;2023-08-24T04:21:35;19.50;99.90
8463;DHT22;4268;52.506;13.462;2023-08-24T04:24:00;19.60;99.90
8463;DHT22;4268;52.506;13.462;2023-08-24T04:26:26;19.60;99.90
8463;DHT22;4268;52.506;13.462;2023-08-24T04:28:51;19.60;99.90
8463;DHT22;4268;52.506;13.462;2023-08-24T04:31:17;19.60;99.90
8463;DHT22;4268;52.506;13.462;2023-08-24T04:33:42;19.60;99.90
8463;DHT22;4268;52.506;13.462;2023-08-24T04:36:08;19.60;99.90
8463;DHT22;4268;52.506;13.462;2023-08-24T04:38:34;19.60;99.90
8463;DHT22;4268;52.506;13.462;2023-08-24T04:41:00;19.60;99.90
8463;DHT22;4268;52.506;13.462;2023-08-24T04:43:26;19.60;99.90
8463;DHT22;4268;52.506;13.462;2023-08-24T04:45:53;19.70;99.90
8463;DHT22;4268;52.506;13.462;2023-08-24T04:48:23;19.70;99.90
8463;DHT22;4268;52.506;13.462;2023-08-24T04:50:49;19.70;99.90
8463;DHT22;4268;52.506;13.462;2023-08-24T04:53:19;19.80;99.90
8463;DHT22;4268;52.506;13.462;2023-08-24T04:55:45;19.80;99.90
8463;DHT22;4268;52.506;13.462;2023-08-24T04:58:12;19.80;99.90
8463;DHT22;4268;52.506;13.462;2023-08-24T05:00:38;19.90;99.90
8463;DHT22;4268;52.506;13.462;2023-08-24T05:03:05;19.80;99.90
8463;DHT22;4268;52.506;13.462;2023-08-24T05:05:34;19.80;99.90
8463;DHT22;4268;52.506;13.462;2023-08-24T05:08:01;19.80;99.90
8463;DHT22;4268;52.506;13.462;2023-08-24T05:10:30;19.90;99.90
8463;DHT22;4268;52.506;13.462;2023-08-24T05:12:55;20.00;99.90
8463;DHT22;4268;52.506;13.462;2023-08-24T05:15:21;20.00;99.90
8463;DHT22;4268;52.506;13.462;2023-08-24T05:17:46;20.10;99.90
8463;DHT22;4268;52.506;13.462;2023-08-24T05:20:12;20.20;99.90
8463;DHT22;4268;52.506;13.462;2023-08-24T05:22:38;20.30;99.90
8463;DHT22;4268;52.506;13.462;2023-08-24T05:25:04;20.40;99.90
8463;DHT22;4268;52.506;13.462;2023-08-24T05:27:32;20.50;99.90
8463;DHT22;4268;52.506;13.462;2023-08-24T05:29:58;20.50;99.90
8463;DHT22;4268;52.506;13.462;2023-08-24T05:32:24;20.60;99.90
8463;DHT22;4268;52.506;13.462;2023-08-24T05:34:49;20.60;99.90
8463;DHT22;4268;52.506;13.462;2023-08-24T05:37:16;20.70;99.90
8463;DHT22;4268;52.506;13.462;2023-08-24T05:39:41;20.70;99.90
8463;DHT22;4268;52.506;13.462;2023-08-24T05:42:08;20.70;99.90
8463;DHT22;4268;52.506;13.462;2023-08-24T05:44:34;20.70;99.90
8463;DHT22;4268;52.506;13.462;2023-08-24T05:46:59;20.80;99.90
8463;DHT22;4268;52.506;13.462;2023-08-24T05:49:24;20.80;99.90
8463;DHT22;4268;52.506;13.462;2023-08-24T05:51:51;20.90;99.90
8463;DHT22;4268;52.506;13.462;2023-08-24T05:54:17;21.00;99.90
8463;DHT22;4268;52.506;13.462;2023-08-24T05:56:46;21.10;99.90
8463;DHT22;4268;52.506;13.462;2023-08-24T05:59:12;21.10;99.90
8463;DHT22;4268;52.506;13.462;2023-08-24T06:01:38;21.10;99.90
8463;DHT22;4268;52.506;13.462;2023-08-24T06:04:05;21.10;99.90
8463;DHT22;4268;52.506;13.462;2023-08-24T06:06:31;22.20;99.90
8463;DHT22;4268;52.506;13.462;2023-08-24T06:08:59;21.20;99.90
8463;DHT22;4268;52.506;13.462;2023-08-24T06:11:25;20.80;99.90
8463;DHT22;4268;52.506;13.462;2023-08-24T06:13:51;21.20;99.90
8463;DHT22;4268;52.506;13.462;2023-08-24T06:16:23;23.10;99.90
8463;DHT22;4268;52.506;13.462;2023-08-24T06:18:49;21.20;99.90
8463;DHT22;4268;52.506;13.462;2023-08-24T06:21:17;22.40;99.90
8463;DHT22;4268;52.506;13.462;2023-08-24T06:23:43;21.60;99.90
8463;DHT22;4268;52.506;13.462;2023-08-24T06:26:13;21.90;99.90
8463;DHT22;4268;52.506;13.462;2023-08-24T06:28:39;22.30;99.90
8463;DHT22;4268;52.506;13.462;2023-08-24T06:31:05;21.30;99.80
8463;DHT22;4268;52.506;13.462;2023-08-24T06:33:34;23.20;99.90
8463;DHT22;4268;52.506;13.462;2023-08-24T06:36:03;24.50;97.80
8463;DHT22;4268;52.506;13.462;2023-08-24T06:38:33;25.40;95.30
8463;DHT22;4268;52.506;13.462;2023-08-24T06:40:59;26.80;93.00
8463;DHT22;4268;52.506;13.462;2023-08-24T06:43:28;28.50;89.90
8463;DHT22;4268;52.506;13.462;2023-08-24T06:45:56;30.10;82.70
8463;DHT22;4268;52.506;13.462;2023-08-24T06:48:22;31.10;77.00
8463;DHT22;4268;52.506;13.462;2023-08-24T06:50:48;32.10;73.00
8463;DHT22;4268;52.506;13.462;2023-08-24T06:53:13;33.10;69.20
8463;DHT22;4268;52.506;13.462;2023-08-24T06:55:40;33.70;65.60
8463;DHT22;4268;52.506;13.462;2023-08-24T06:58:06;34.10;63.80
8463;DHT22;4268;52.506;13.462;2023-08-24T07:00:32;34.40;62.80
8463;DHT22;4268;52.506;13.462;2023-08-24T07:02:59;34.50;61.40
8463;DHT22;4268;52.506;13.462;2023-08-24T07:05:25;34.60;60.40
8463;DHT22;4268;52.506;13.462;2023-08-24T07:07:51;34.90;60.00
8463;DHT22;4268;52.506;13.462;2023-08-24T07:10:16;35.50;58.90
8463;DHT22;4268;52.506;13.462;2023-08-24T07:12:43;35.90;58.00
8463;DHT22;4268;52.506;13.462;2023-08-24T07:15:10;36.40;56.30
8463;DHT22;4268;52.506;13.462;2023-08-24T07:17:36;36.40;55.80
8463;DHT22;4268;52.506;13.462;2023-08-24T07:20:02;36.30;55.60
8463;DHT22;4268;52.506;13.462;2023-08-24T07:22:30;36.70;54.70
8463;DHT22;4268;52.506;13.462;2023-08-24T07:24:56;36.60;54.70
8463;DHT22;4268;52.506;13.462;2023-08-24T07:27:21;36.70;54.50
8463;DHT22;4268;52.506;13.462;2023-08-24T07:29:47;36.70;53.90
8463;DHT22;4268;52.506;13.462;2023-08-24T07:32:12;36.70;53.80
8463;DHT22;4268;52.506;13.462;2023-08-24T07:34:38;36.50;53.70
8463;DHT22;4268;52.506;13.462;2023-08-24T07:37:03;36.30;53.80
8463;DHT22;4268;52.506;13.462;2023-08-24T07:39:29;36.30;53.60
8463;DHT22;4268;52.506;13.462;2023-08-24T07:41:55;35.90;54.20
8463;DHT22;4268;52.506;13.462;2023-08-24T07:44:20;35.30;54.90
8463;DHT22;4268;52.506;13.462;2023-08-24T07:46:47;34.70;55.70
8463;DHT22;4268;52.506;13.462;2023-08-24T07:49:13;34.10;56.20
8463;DHT22;4268;52.506;13.462;2023-08-24T07:51:38;33.60;57.20
8463;DHT22;4268;52.506;13.462;2023-08-24T07:54:04;33.20;57.50
8463;DHT22;4268;52.506;13.462;2023-08-24T07:56:32;33.00;57.90
8463;DHT22;4268;52.506;13.462;2023-08-24T07:58:58;32.70;58.50
8463;DHT22;4268;52.506;13.462;2023-08-24T08:01:24;32.40;58.70
8463;DHT22;4268;52.506;13.462;2023-08-24T08:03:49;31.00;60.50
8463;DHT22;4268;52.506;13.462;2023-08-24T08:06:15;30.90;62.10
8463;DHT22;4268;52.506;13.462;2023-08-24T08:08:40;31.30;61.60
8463;DHT22;4268;52.506;13.462;2023-08-24T08:11:06;31.50;60.70
8463;DHT22;4268;52.506;13.462;2023-08-24T08:13:31;31.60;61.70
8463;DHT22;4268;52.506;13.462;2023-08-24T08:16:01;31.10;61.20
8463;DHT22;4268;52.506;13.462;2023-08-24T08:18:28;31.10;61.90
8463;DHT22;4268;52.506;13.462;2023-08-24T08:20:54;30.90;62.10
8463;DHT22;4268;52.506;13.462;2023-08-24T08:23:20;30.50;62.80
8463;DHT22;4268;52.506;13.462;2023-08-24T08:25:45;30.20;63.10
8463;DHT22;4268;52.506;13.462;2023-08-24T08:28:11;30.10;63.50
8463;DHT22;4268;52.506;13.462;2023-08-24T08:30:36;30.30;62.80
8463;DHT22;4268;52.506;13.462;2023-08-24T08:33:02;30.10;62.60
8463;DHT22;4268;52.506;13.462;2023-08-24T08:35:27;29.90;63.40
8463;DHT22;4268;52.506;13.462;2023-08-24T08:37:53;29.50;64.30
8463;DHT22;4268;52.506;13.462;2023-08-24T08:40:19;29.20;64.70
8463;DHT22;4268;52.506;13.462;2023-08-24T08:42:45;28.80;65.60
8463;DHT22;4268;52.506;13.462;2023-08-24T08:45:11;28.50;66.30
8463;DHT22;4268;52.506;13.462;2023-08-24T08:47:37;28.10;67.80
8463;DHT22;4268;52.506;13.462;2023-08-24T08:50:03;27.70;68.50
8463;DHT22;4268;52.506;13.462;2023-08-24T08:52:29;27.20;69.60
8463;DHT22;4268;52.506;13.462;2023-08-24T08:54:55;26.90;70.60
8463;DHT22;4268;52.506;13.462;2023-08-24T08:57:23;26.40;71.90
8463;DHT22;4268;52.506;13.462;2023-08-24T08:59:51;26.30;72.40
8463;DHT22;4268;52.506;13.462;2023-08-24T09:02:19;26.50;72.60
8463;DHT22;4268;52.506;13.462;2023-08-24T09:04:45;26.60;72.20
8463;DHT22;4268;52.506;13.462;2023-08-24T09:07:13;26.70;72.20
8463;DHT22;4268;52.506;13.462;2023-08-24T09:09:39;26.60;72.10
8463;DHT22;4268;52.506;13.462;2023-08-24T09:12:06;26.40;72.70
8463;DHT22;4268;52.506;13.462;2023-08-24T09:14:32;26.30;73.10
8463;DHT22;4268;52.506;13.462;2023-08-24T09:16:58;26.30;73.60
8463;DHT22;4268;52.506;13.462;2023-08-24T09:19:31;26.30;73.80
8463;DHT22;4268;52.506;13.462;2023-08-24T09:21:57;26.50;73.40
8463;DHT22;4268;52.506;13.462;2023-08-24T09:24:33;26.50;72.80
8463;DHT22;4268;52.506;13.462;2023-08-24T09:26:59;26.50;73.10
8463;DHT22;4268;52.506;13.462;2023-08-24T09:29:24;26.60;72.40
8463;DHT22;4268;52.506;13.462;2023-08-24T09:31:51;26.50;72.00
8463;DHT22;4268;52.506;13.462;2023-08-24T09:34:20;26.20;72.10
8463;DHT22;4268;52.506;13.462;2023-08-24T09:36:46;26.10;73.10
8463;DHT22;4268;52.506;13.462;2023-08-24T09:39:12;26.20;72.40
8463;DHT22;4268;52.506;13.462;2023-08-24T09:41:39;26.10;72.50
8463;DHT22;4268;52.506;13.462;2023-08-24T09:44:05;26.30;72.60
8463;DHT22;4268;52.506;13.462;2023-08-24T09:46:31;26.40;72.70
8463;DHT22;4268;52.506;13.462;2023-08-24T09:48:56;26.50;72.90
8463;DHT22;4268;52.506;13.462;2023-08-24T09:51:26;26.50;72.00
8463;DHT22;4268;52.506;13.462;2023-08-24T09:53:57;26.40;72.50
8463;DHT22;4268;52.506;13.462;2023-08-24T09:56:28;26.40;72.60
8463;DHT22;4268;52.506;13.462;2023-08-24T09:58:54;26.50;72.40
8463;DHT22;4268;52.506;13.462;2023-08-24T10:01:21;26.50;72.80
8463;DHT22;4268;52.506;13.462;2023-08-24T10:03:50;26.50;70.40
8463;DHT22;4268;52.506;13.462;2023-08-24T10:06:19;26.60;70.30
8463;DHT22;4268;52.506;13.462;2023-08-24T10:08:49;26.60;70.70
8463;DHT22;4268;52.506;13.462;2023-08-24T10:11:22;26.60;70.30
8463;DHT22;4268;52.506;13.462;2023-08-24T10:14:04;26.60;69.60
8463;DHT22;4268;52.506;13.462;2023-08-24T10:16:33;26.60;69.20
8463;DHT22;4268;52.506;13.462;2023-08-24T10:18:59;26.70;69.50
8463;DHT22;4268;52.506;13.462;2023-08-24T10:21:27;26.70;70.40
8463;DHT22;4268;52.506;13.462;2023-08-24T10:23:55;26.70;70.70
8463;DHT22;4268;52.506;13.462;2023-08-24T10:26:22;26.70;70.10
8463;DHT22;4268;52.506;13.462;2023-08-24T10:28:50;26.80;70.00
8463;DHT22;4268;52.506;13.462;2023-08-24T10:31:15;26.80;70.90
8463;DHT22;4268;52.506;13.462;2023-08-24T10:33:41;26.70;70.80
8463;DHT22;4268;52.506;13.462;2023-08-24T10:36:09;26.60;71.00
8463;DHT22;4268;52.506;13.462;2023-08-24T10:38:40;26.70;71.30
8463;DHT22;4268;52.506;13.462;2023-08-24T10:41:07;26.70;71.60
8463;DHT22;4268;52.506;13.462;2023-08-24T10:43:40;26.80;71.50
8463;DHT22;4268;52.506;13.462;2023-08-24T10:46:13;26.80;71.30
8463;DHT22;4268;52.506;13.462;2023-08-24T10:53:47;26.90;71.50
8463;DHT22;4268;52.506;13.462;2023-08-24T10:56:18;27.00;70.50
8463;DHT22;4268;52.506;13.462;2023-08-24T10:58:46;27.00;70.50
8463;DHT22;4268;52.506;13.462;2023-08-24T11:01:19;27.00;70.40
8463;DHT22;4268;52.506;13.462;2023-08-24T11:03:51;27.10;70.50
8463;DHT22;4268;52.506;13.462;2023-08-24T11:06:21;27.10;70.60
8463;DHT22;4268;52.506;13.462;2023-08-24T11:08:47;27.10;70.50
8463;DHT22;4268;52.506;13.462;2023-08-24T11:11:23;27.20;70.80
8463;DHT22;4268;52.506;13.462;2023-08-24T11:14:17;27.30;70.90
8463;DHT22;4268;52.506;13.462;2023-08-24T11:16:48;27.40;71.20
8463;DHT22;4268;52.506;13.462;2023-08-24T11:19:15;27.40;71.30
8463;DHT22;4268;52.506;13.462;2023-08-24T11:21:45;27.40;71.00
8463;DHT22;4268;52.506;13.462;2023-08-24T11:24:14;27.50;71.10
8463;DHT22;4268;52.506;13.462;2023-08-24T11:26:44;27.50;71.10
8463;DHT22;4268;52.506;13.462;2023-08-24T11:29:10;27.50;71.10
8463;DHT22;4268;52.506;13.462;2023-08-24T11:31:36;27.50;71.20
8463;DHT22;4268;52.506;13.462;2023-08-24T11:34:02;27.50;71.10
8463;DHT22;4268;52.506;13.462;2023-08-24T11:36:30;27.50;71.50
8463;DHT22;4268;52.506;13.462;2023-08-24T11:38:59;27.50;71.50
8463;DHT22;4268;52.506;13.462;2023-08-24T11:41:25;27.60;71.10
8463;DHT22;4268;52.506;13.462;2023-08-24T11:44:00;27.50;71.00
8463;DHT22;4268;52.506;13.462;2023-08-24T11:46:27;27.60;71.10
8463;DHT22;4268;52.506;13.462;2023-08-24T11:48:53;27.60;71.40
8463;DHT22;4268;52.506;13.462;2023-08-24T11:51:18;27.60;71.30
8463;DHT22;4268;52.506;13.462;2023-08-24T11:53:45;27.60;70.80
8463;DHT22;4268;52.506;13.462;2023-08-24T11:56:11;27.50;70.80
8463;DHT22;4268;52.506;13.462;2023-08-24T11:58:39;27.50;70.80
8463;DHT22;4268;52.506;13.462;2023-08-24T12:01:05;27.60;71.10
8463;DHT22;4268;52.506;13.462;2023-08-24T12:03:31;27.60;70.90
8463;DHT22;4268;52.506;13.462;2023-08-24T12:06:01;27.80;71.00
8463;DHT22;4268;52.506;13.462;2023-08-24T12:08:26;27.60;70.70
8463;DHT22;4268;52.506;13.462;2023-08-24T12:10:52;27.60;70.70
8463;DHT22;4268;52.506;13.462;2023-08-24T12:13:17;27.60;70.70
8463;DHT22;4268;52.506;13.462;2023-08-24T12:15:43;27.60;70.90
8463;DHT22;4268;52.506;13.462;2023-08-24T12:18:09;27.50;71.10
8463;DHT22;4268;52.506;13.462;2023-08-24T12:20:35;27.30;71.00
8463;DHT22;4268;52.506;13.462;2023-08-24T12:23:01;27.20;71.30
8463;DHT22;4268;52.506;13.462;2023-08-24T12:25:27;27.10;71.40
8463;DHT22;4268;52.506;13.462;2023-08-24T12:28:14;26.90;72.20
8463;DHT22;4268;52.506;13.462;2023-08-24T12:33:23;27.00;72.70
8463;DHT22;4268;52.506;13.462;2023-08-24T12:35:49;27.10;72.70
8463;DHT22;4268;52.506;13.462;2023-08-24T12:38:14;27.10;72.20
8463;DHT22;4268;52.506;13.462;2023-08-24T12:40:40;27.20;72.10
8463;DHT22;4268;52.506;13.462;2023-08-24T12:43:05;27.40;72.00
8463;DHT22;4268;52.506;13.462;2023-08-24T12:45:31;27.40;71.40
8463;DHT22;4268;52.506;13.462;2023-08-24T12:47:57;27.40;71.00
8463;DHT22;4268;52.506;13.462;2023-08-24T12:50:22;27.60;70.50
8463;DHT22;4268;52.506;13.462;2023-08-24T12:52:47;27.60;70.50
8463;DHT22;4268;52.506;13.462;2023-08-24T12:55:13;27.60;71.10
8463;DHT22;4268;52.506;13.462;2023-08-24T12:57:38;27.70;71.40
8463;DHT22;4268;52.506;13.462;2023-08-24T13:00:04;27.70;71.30
8463;DHT22;4268;52.506;13.462;2023-08-24T13:02:31;27.70;71.30
8463;DHT22;4268;52.506;13.462;2023-08-24T13:04:56;27.60;71.20
8463;DHT22;4268;52.506;13.462;2023-08-24T13:07:26;27.60;71.50
8463;DHT22;4268;52.506;13.462;2023-08-24T13:09:51;27.70;71.50
8463;DHT22;4268;52.506;13.462;2023-08-24T13:12:17;27.80;71.50
8463;DHT22;4268;52.506;13.462;2023-08-24T13:14:42;27.80;70.60
8463;DHT22;4268;52.506;13.462;2023-08-24T13:17:08;27.80;70.80
8463;DHT22;4268;52.506;13.462;2023-08-24T13:19:33;27.90;70.90
8463;DHT22;4268;52.506;13.462;2023-08-24T13:21:59;28.00;70.60
8463;DHT22;4268;52.506;13.462;2023-08-24T13:24:24;28.00;70.00
8463;DHT22;4268;52.506;13.462;2023-08-24T13:26:50;28.00;69.50
8463;DHT22;4268;52.506;13.462;2023-08-24T13:29:15;29.30;71.20
8463;DHT22;4268;52.506;13.462;2023-08-24T13:31:41;28.20;70.30
8463;DHT22;4268;52.506;13.462;2023-08-24T13:34:06;28.20;70.70
8463;DHT22;4268;52.506;13.462;2023-08-24T13:36:33;28.40;71.10
8463;DHT22;4268;52.506;13.462;2023-08-24T13:38:59;28.40;70.80
8463;DHT22;4268;52.506;13.462;2023-08-24T13:41:24;28.50;71.10
8463;DHT22;4268;52.506;13.462;2023-08-24T13:43:50;28.60;71.00
8463;DHT22;4268;52.506;13.462;2023-08-24T13:46:15;28.70;71.30
8463;DHT22;4268;52.506;13.462;2023-08-24T13:48:41;28.60;71.10
8463;DHT22;4268;52.506;13.462;2023-08-24T13:51:06;28.50;71.30
8463;DHT22;4268;52.506;13.462;2023-08-24T13:53:33;28.40;71.50
8463;DHT22;4268;52.506;13.462;2023-08-24T13:55:59;28.50;71.20
8463;DHT22;4268;52.506;13.462;2023-08-24T13:58:24;28.40;71.40
8463;DHT22;4268;52.506;13.462;2023-08-24T14:00:56;28.40;71.20
8463;DHT22;4268;52.506;13.462;2023-08-24T14:03:22;28.40;71.90
8463;DHT22;4268;52.506;13.462;2023-08-24T14:05:48;28.40;71.50
8463;DHT22;4268;52.506;13.462;2023-08-24T14:08:15;28.40;71.10
8463;DHT22;4268;52.506;13.462;2023-08-24T14:10:40;28.40;71.20
8463;DHT22;4268;52.506;13.462;2023-08-24T14:13:06;28.40;70.90
8463;DHT22;4268;52.506;13.462;2023-08-24T14:15:31;28.30;70.90
8463;DHT22;4268;52.506;13.462;2023-08-24T14:17:57;28.20;71.60
8463;DHT22;4268;52.506;13.462;2023-08-24T14:20:22;28.10;71.50
8463;DHT22;4268;52.506;13.462;2023-08-24T14:22:48;27.90;71.40
8463;DHT22;4268;52.506;13.462;2023-08-24T14:25:14;27.90;71.80
8463;DHT22;4268;52.506;13.462;2023-08-24T14:27:39;28.20;72.00
8463;DHT22;4268;52.506;13.462;2023-08-24T14:30:07;28.00;71.20
8463;DHT22;4268;52.506;13.462;2023-08-24T14:32:33;28.00;70.90
8463;DHT22;4268;52.506;13.462;2023-08-24T14:34:59;28.10;71.00
8463;DHT22;4268;52.506;13.462;2023-08-24T14:37:24;28.20;71.10
8463;DHT22;4268;52.506;13.462;2023-08-24T14:39:50;28.30;71.20
8463;DHT22;4268;52.506;13.462;2023-08-24T14:42:16;28.40;70.40
8463;DHT22;4268;52.506;13.462;2023-08-24T14:44:41;28.40;70.00
8463;DHT22;4268;52.506;13.462;2023-08-24T14:47:07;28.40;69.20
8463;DHT22;4268;52.506;13.462;2023-08-24T14:49:32;28.40;69.50
8463;DHT22;4268;52.506;13.462;2023-08-24T14:51:58;28.30;69.60
8463;DHT22;4268;52.506;13.462;2023-08-24T14:54:23;28.20;69.90
8463;DHT22;4268;52.506;13.462;2023-08-24T14:56:49;28.10;69.30
8463;DHT22;4268;52.506;13.462;2023-08-24T14:59:14;28.00;69.70
8463;DHT22;4268;52.506;13.462;2023-08-24T15:01:40;28.00;70.30
8463;DHT22;4268;52.506;13.462;2023-08-24T15:04:05;28.00;70.70
8463;DHT22;4268;52.506;13.462;2023-08-24T15:06:31;28.00;71.00
8463;DHT22;4268;52.506;13.462;2023-08-24T15:08:56;28.00;71.20
8463;DHT22;4268;52.506;13.462;2023-08-24T15:11:23;28.10;70.70
8463;DHT22;4268;52.506;13.462;2023-08-24T15:13:48;28.10;69.90
8463;DHT22;4268;52.506;13.462;2023-08-24T15:16:15;28.10;69.70
8463;DHT22;4268;52.506;13.462;2023-08-24T15:18:40;28.10;69.00
8463;DHT22;4268;52.506;13.462;2023-08-24T15:21:06;28.10;68.70
8463;DHT22;4268;52.506;13.462;2023-08-24T15:23:31;28.10;68.90
8463;DHT22;4268;52.506;13.462;2023-08-24T15:25:59;28.20;69.40
8463;DHT22;4268;52.506;13.462;2023-08-24T15:28:25;28.20;69.40
8463;DHT22;4268;52.506;13.462;2023-08-24T15:30:52;28.30;69.60
8463;DHT22;4268;52.506;13.462;2023-08-24T15:33:18;28.30;69.40
8463;DHT22;4268;52.506;13.462;2023-08-24T15:35:44;28.30;69.70
8463;DHT22;4268;52.506;13.462;2023-08-24T15:38:10;28.30;69.90
8463;DHT22;4268;52.506;13.462;2023-08-24T15:40:36;28.20;69.90
8463;DHT22;4268;52.506;13.462;2023-08-24T15:43:03;28.20;69.70
8463;DHT22;4268;52.506;13.462;2023-08-24T15:45:29;28.30;70.00
8463;DHT22;4268;52.506;13.462;2023-08-24T15:47:58;28.30;70.30
8463;DHT22;4268;52.506;13.462;2023-08-24T15:50:25;28.10;70.00